Aidablu — IBWX — position and weather

sailwx.info

Track history (hours):
 
Tides and Currents Weather Stations Pressure Air Temp Water Temp Dewpoint Dewpoint Depression Visibility Wind Speed Wind Dir Waves Ship Positions

Aidablu

Last reported at 2017-Jan-21 15:33 UTC. Time now 2017-Jan-21 15:34 UTC.
Position N 28°08' W 015°25'.

Length 252 m; draft 7.3 m.

Type: Ship. MMSI: 247282500.

Date/timePositionNaut miles runAvg speedWind from/ knotsBaromVisibWave heightAir tempDewpointWater temp
2017-Jan-21 15:33N 28°08' W 015°25'0 0.0
2017-Jan-21 14:30N 28°08' W 015°25'0 0.0
2017-Jan-21 13:33N 28°08' W 015°25'0 0.0
2017-Jan-21 12:32N 28°08' W 015°25'0 0.0
2017-Jan-21 11:23N 28°08' W 015°25'0 0.0
2017-Jan-21 10:31N 28°08' W 015°25'0 0.0
2017-Jan-21 09:22N 28°08' W 015°25'0 0.0
2017-Jan-21 08:30N 28°08' W 015°25'0 0.0
2017-Jan-21 07:30N 28°08' W 015°25'0 0.0
2017-Jan-21 06:33N 28°08' W 015°25'0 0.0
2017-Jan-21 05:32N 28°08' W 015°25'0 0.0
2017-Jan-21 04:17N 28°08' W 015°25'0 0.0
2017-Jan-21 03:31N 28°08' W 015°25'0 0.0
2017-Jan-21 02:25N 28°08' W 015°25'0 0.0
2017-Jan-21 01:33N 28°08' W 015°25'2 1.8
2017-Jan-21 00:33N 28°07' W 015°24'9 9.2
2017-Jan-20 23:34N 28°14' W 015°31'1514.8
2017-Jan-20 22:33N 28°16' W 015°48'1414.2
2017-Jan-20 21:33N 28°22' W 016°02'1211.4
2017-Jan-20 20:28N 28°28' W 016°15'0 0.0
2017-Jan-20 07:12N 28°28' W 016°15'5 6.8
2017-Jan-20 06:31N 28°27' W 016°10'1313.5
2017-Jan-20 05:33N 28°21' W 015°57'1313.3
2017-Jan-20 04:33N 28°17' W 015°42'9 9.4
2017-Jan-20 03:33N 28°16' W 015°32'7 7.2
2017-Jan-20 02:33N 28°15' W 015°23'7 7.1
2017-Jan-20 01:33N 28°14' W 015°16'1111.0
2017-Jan-20 00:33N 28°10' W 015°04'1313.1
2017-Jan-19 23:33N 28°05' W 014°50'1313.1
2017-Jan-19 22:33N 28°00' W 014°36'2713.0
2017-Jan-19 20:30N 28°04' W 014°06'2512.9
2017-Jan-19 18:32N 28°24' W 013°48'7 0.7
2017-Jan-19 08:30N 28°30' W 013°51'0 0.0
2017-Jan-19 04:10N 28°30' W 013°51'0 0.0
2017-Jan-19 03:33N 28°30' W 013°51'0 0.0
2017-Jan-19 02:09N 28°30' W 013°51'0 0.0
2017-Jan-19 01:17N 28°30' W 013°51'0 0.0
2017-Jan-19 00:11N 28°30' W 013°51'0 0.0
2017-Jan-18 23:32N 28°30' W 013°51'0 0.0
2017-Jan-18 22:31N 28°30' W 013°51'13 4.5
2017-Jan-18 19:33N 28°38' W 013°40'1514.5
2017-Jan-18 18:33N 28°51' W 013°33'7 6.6
2017-Jan-18 17:33N 28°58' W 013°32'0 0.0
2017-Jan-18 15:14N 28°58' W 013°32'0 0.0
2017-Jan-18 12:04N 28°58' W 013°32'0 0.0
2017-Jan-18 11:33N 28°58' W 013°32'0 0.0
2017-Jan-18 10:30N 28°58' W 013°32'0 0.0
2017-Jan-18 09:08N 28°58' W 013°32'0 0.0
2017-Jan-18 08:32N 28°58' W 013°32'0 0.0
2017-Jan-18 07:34N 28°58' W 013°32'5 5.2
2017-Jan-18 06:33N 28°54' W 013°36'1312.6
2017-Jan-18 05:33N 28°48' W 013°49'1212.2
2017-Jan-18 04:33N 28°56' W 013°59'  
2017-Jan-15 03:32N 29°02' W 015°34'1212.4
2017-Jan-15 02:33N 28°51' W 015°30'1312.5
2017-Jan-15 01:33N 28°39' W 015°25'1312.5
2017-Jan-15 00:33N 28°27' W 015°21'1212.2
2017-Jan-14 23:33N 28°15' W 015°21'8 7.5
2017-Jan-14 22:33N 28°08' W 015°25'0 0.0
2017-Jan-14 21:32N 28°08' W 015°25'0 0.0
2017-Jan-14 20:31N 28°08' W 015°25'0 0.0
2017-Jan-14 19:25N 28°08' W 015°25'0 0.0
2017-Jan-14 18:33N 28°08' W 015°25'0 0.0
2017-Jan-14 17:27N 28°08' W 015°25'0 0.0
2017-Jan-14 16:33N 28°08' W 015°25'0 0.0
2017-Jan-14 15:29N 28°08' W 015°25'0 0.0
2017-Jan-14 14:32N 28°08' W 015°25'0 0.0
2017-Jan-14 13:31N 28°08' W 015°25'0 0.0
2017-Jan-14 12:25N 28°08' W 015°25'0 0.0
2017-Jan-14 11:33N 28°08' W 015°25'0 0.0
2017-Jan-14 10:27N 28°08' W 015°25'0 0.0
2017-Jan-14 09:33N 28°08' W 015°25'0 0.0
2017-Jan-14 08:26N 28°08' W 015°25'0 0.0
2017-Jan-14 07:20N 28°08' W 015°25'0 0.0
2017-Jan-14 06:31N 28°08' W 015°25'0 0.0
2017-Jan-14 05:22N 28°08' W 015°25'0 0.0
2017-Jan-14 04:33N 28°08' W 015°25'0 0.0
2017-Jan-14 03:27N 28°08' W 015°25'6 1.6
2017-Jan-13 23:33N 28°13' W 015°30'1413.6
2017-Jan-13 22:33N 28°15' W 015°45'1612.9
2017-Jan-13 21:19N 28°21' W 016°02'81 6.2
2017-Jan-13 08:19N 27°59' W 014°33'1 0.1
2017-Jan-12 22:11N 27°59' W 014°32'913.8
2017-Jan-12 21:33N 27°58' W 014°22'1413.7
2017-Jan-12 20:33N 28°03' W 014°08'1414.5
2017-Jan-12 19:33N 28°10' W 013°53'1413.6
2017-Jan-12 18:33N 28°23' W 013°49'7 1.1
2017-Jan-12 12:24N 28°30' W 013°51'0 0.0
2017-Jan-12 11:11N 28°30' W 013°51'0 0.0
2017-Jan-12 10:29N 28°30' W 013°51'0 0.0
2017-Jan-12 09:22N 28°30' W 013°51'15 1.0
2017-Jan-11 19:21N 28°40' W 013°39'1114.1
2017-Jan-11 18:33N 28°50' W 013°34'8 7.9
2017-Jan-11 17:30N 28°58' W 013°32'0 0.0
2017-Jan-11 16:32N 28°58' W 013°32'  
Track history (hours):
 
Tides and Currents Weather Stations Pressure Air Temp Water Temp Dewpoint Dewpoint Depression Visibility Wind Speed Wind Dir Waves Ship Positions

Aidablu

Last reported at 2017-Jan-21 15:33 UTC. Time now 2017-Jan-21 15:34 UTC.
Position N 28°08' W 015°25'.

Length 252 m; draft 7.3 m.

Type: Ship. MMSI: 247282500.

Date/timePositionNaut miles runAvg speedWind from/ knotsBaromVisibWave heightAir tempDewpointWater temp
2017-Jan-21 15:33N 28°08' W 015°25'0 0.0
2017-Jan-21 14:30N 28°08' W 015°25'0 0.0
2017-Jan-21 13:33N 28°08' W 015°25'0 0.0
2017-Jan-21 12:32N 28°08' W 015°25'0 0.0
2017-Jan-21 11:23N 28°08' W 015°25'0 0.0
2017-Jan-21 10:31N 28°08' W 015°25'0 0.0
2017-Jan-21 09:22N 28°08' W 015°25'0 0.0
2017-Jan-21 08:30N 28°08' W 015°25'0 0.0
2017-Jan-21 07:30N 28°08' W 015°25'0 0.0
2017-Jan-21 06:33N 28°08' W 015°25'0 0.0
2017-Jan-21 05:32N 28°08' W 015°25'0 0.0
2017-Jan-21 04:17N 28°08' W 015°25'0 0.0
2017-Jan-21 03:31N 28°08' W 015°25'0 0.0
2017-Jan-21 02:25N 28°08' W 015°25'0 0.0
2017-Jan-21 01:33N 28°08' W 015°25'2 1.8
2017-Jan-21 00:33N 28°07' W 015°24'9 9.2
2017-Jan-20 23:34N 28°14' W 015°31'1514.8
2017-Jan-20 22:33N 28°16' W 015°48'1414.2
2017-Jan-20 21:33N 28°22' W 016°02'1211.4
2017-Jan-20 20:28N 28°28' W 016°15'0 0.0
2017-Jan-20 07:12N 28°28' W 016°15'5 6.8
2017-Jan-20 06:31N 28°27' W 016°10'1313.5
2017-Jan-20 05:33N 28°21' W 015°57'1313.3
2017-Jan-20 04:33N 28°17' W 015°42'9 9.4
2017-Jan-20 03:33N 28°16' W 015°32'7 7.2
2017-Jan-20 02:33N 28°15' W 015°23'7 7.1
2017-Jan-20 01:33N 28°14' W 015°16'1111.0
2017-Jan-20 00:33N 28°10' W 015°04'1313.1
2017-Jan-19 23:33N 28°05' W 014°50'1313.1
2017-Jan-19 22:33N 28°00' W 014°36'2713.0
2017-Jan-19 20:30N 28°04' W 014°06'2512.9
2017-Jan-19 18:32N 28°24' W 013°48'7 0.7
2017-Jan-19 08:30N 28°30' W 013°51'0 0.0
2017-Jan-19 04:10N 28°30' W 013°51'0 0.0
2017-Jan-19 03:33N 28°30' W 013°51'0 0.0
2017-Jan-19 02:09N 28°30' W 013°51'0 0.0
2017-Jan-19 01:17N 28°30' W 013°51'0 0.0
2017-Jan-19 00:11N 28°30' W 013°51'0 0.0
2017-Jan-18 23:32N 28°30' W 013°51'0 0.0
2017-Jan-18 22:31N 28°30' W 013°51'13 4.5
2017-Jan-18 19:33N 28°38' W 013°40'1514.5
2017-Jan-18 18:33N 28°51' W 013°33'7 6.6
2017-Jan-18 17:33N 28°58' W 013°32'0 0.0
2017-Jan-18 15:14N 28°58' W 013°32'0 0.0
2017-Jan-18 12:04N 28°58' W 013°32'0 0.0
2017-Jan-18 11:33N 28°58' W 013°32'0 0.0
2017-Jan-18 10:30N 28°58' W 013°32'0 0.0
2017-Jan-18 09:08N 28°58' W 013°32'0 0.0
2017-Jan-18 08:32N 28°58' W 013°32'0 0.0
2017-Jan-18 07:34N 28°58' W 013°32'5 5.2
2017-Jan-18 06:33N 28°54' W 013°36'1312.6
2017-Jan-18 05:33N 28°48' W 013°49'1212.2
2017-Jan-18 04:33N 28°56' W 013°59'  
2017-Jan-15 03:32N 29°02' W 015°34'1212.4
2017-Jan-15 02:33N 28°51' W 015°30'1312.5
2017-Jan-15 01:33N 28°39' W 015°25'1312.5
2017-Jan-15 00:33N 28°27' W 015°21'1212.2
2017-Jan-14 23:33N 28°15' W 015°21'8 7.5
2017-Jan-14 22:33N 28°08' W 015°25'0 0.0
2017-Jan-14 21:32N 28°08' W 015°25'0 0.0
2017-Jan-14 20:31N 28°08' W 015°25'0 0.0
2017-Jan-14 19:25N 28°08' W 015°25'0 0.0
2017-Jan-14 18:33N 28°08' W 015°25'0 0.0
2017-Jan-14 17:27N 28°08' W 015°25'0 0.0
2017-Jan-14 16:33N 28°08' W 015°25'0 0.0
2017-Jan-14 15:29N 28°08' W 015°25'0 0.0
2017-Jan-14 14:32N 28°08' W 015°25'0 0.0
2017-Jan-14 13:31N 28°08' W 015°25'0 0.0
2017-Jan-14 12:25N 28°08' W 015°25'0 0.0
2017-Jan-14 11:33N 28°08' W 015°25'0 0.0
2017-Jan-14 10:27N 28°08' W 015°25'0 0.0
2017-Jan-14 09:33N 28°08' W 015°25'0 0.0
2017-Jan-14 08:26N 28°08' W 015°25'0 0.0
2017-Jan-14 07:20N 28°08' W 015°25'0 0.0
2017-Jan-14 06:31N 28°08' W 015°25'0 0.0
2017-Jan-14 05:22N 28°08' W 015°25'0 0.0
2017-Jan-14 04:33N 28°08' W 015°25'0 0.0
2017-Jan-14 03:27N 28°08' W 015°25'6 1.6
2017-Jan-13 23:33N 28°13' W 015°30'1413.6
2017-Jan-13 22:33N 28°15' W 015°45'1612.9
2017-Jan-13 21:19N 28°21' W 016°02'81 6.2
2017-Jan-13 08:19N 27°59' W 014°33'1 0.1
2017-Jan-12 22:11N 27°59' W 014°32'913.8
2017-Jan-12 21:33N 27°58' W 014°22'1413.7
2017-Jan-12 20:33N 28°03' W 014°08'1414.5
2017-Jan-12 19:33N 28°10' W 013°53'1413.6
2017-Jan-12 18:33N 28°23' W 013°49'7 1.1
2017-Jan-12 12:24N 28°30' W 013°51'0 0.0
2017-Jan-12 11:11N 28°30' W 013°51'0 0.0
2017-Jan-12 10:29N 28°30' W 013°51'0 0.0
2017-Jan-12 09:22N 28°30' W 013°51'15 1.0
2017-Jan-11 19:21N 28°40' W 013°39'1114.1
2017-Jan-11 18:33N 28°50' W 013°34'8 7.9
2017-Jan-11 17:30N 28°58' W 013°32'0 0.0
2017-Jan-11 16:32N 28°58' W 013°32'  

Dump ship's entire track history